• Join FlightAware (Why Join?)
  • Login
  • US Flag 
11:59PM EDT


 

Airport Tracker/Info


-or-


 

Live Flight TrackerFlight Track Log ✈ NKS446 ✈ 13-May-2012 ✈ KSAN - KLAS

Flight Track Log - Related Links

Times and Time Zones

All times are in EDT time to prevent confusion due to time zone crossing. See the NKS446 flight status page for this flight to view local times or setup timezone preferences in your user account.

Time Position Orientation Groundspeed Altitude Reporting Facility
EDT Latitude Longitude Course Direction KTS MPH feet Rate Location/Type
03:00PM 32.7500 -117.2167 292° West 154 177 1,500  Level Southern California TRACON
03:01PM 32.7667 -117.2667 306° West 217 250 3,400 2,520 Climbing Southern California TRACON
03:02PM 32.8167 -117.3500 312° West 281 323 6,700 3,360 Climbing Southern California TRACON
03:03PM 32.8667 -117.4167 316° Northwest 293 337 10,200 2,700 Climbing Southern California TRACON
03:04PM 32.9403 -117.5022 310° West 304 350 12,700 2,520 Climbing Los Angeles Center
03:05PM 32.9997 -117.5872 312° West 326 375 15,900 2,940 Climbing Los Angeles Center
03:06PM 33.0656 -117.6753 312° West 341 392 18,600 2,940 Climbing Los Angeles Center
03:07PM 33.1331 -117.7656 314° West 348 400 21,900 2,940 Climbing Los Angeles Center
03:08PM 33.2008 -117.8489 360° North 353 406 24,500 2,520 Climbing Los Angeles Center
03:09PM 33.3011 -117.8483 North 331 381 27,000 2,220 Climbing Los Angeles Center
03:10PM 33.4119 -117.8431 North 331 381 29,000 960 Climbing Los Angeles Center
03:11PM 33.5122 -117.8353 North 343 395 29,000  Level Los Angeles Center
03:12PM 33.6144 -117.8247 North 358 412 29,000  Level Los Angeles Center
03:13PM 33.7169 -117.8169 North 363 418 29,000  Level Los Angeles Center
03:14PM 33.8192 -117.8089 North 363 418 29,000  Level Los Angeles Center
03:15PM 33.9194 -117.8008 12° North 363 418 29,000  Level Los Angeles Center
03:16PM 34.0286 -117.7731 27° Northeast 375 432 29,000  Level Los Angeles Center
03:17PM 34.1231 -117.7147 44° Northeast 398 458 29,000  Level Los Angeles Center
03:18PM 34.2186 -117.6033 48° Northeast 428 493 29,000  Level Los Angeles Center
03:19PM 34.3075 -117.4842 45° Northeast 443 510 29,000  Level Los Angeles Center
03:20PM 34.4069 -117.3625 54° Northeast 463 533 29,000  Level Los Angeles Center
03:21PM 34.4769 -117.2450 48° Northeast 468 539 29,000  Level Los Angeles Center
03:22PM 34.5636 -117.1278 48° Northeast 468 539 29,000  Level Los Angeles Center
03:23PM 34.6606 -116.9950 49° Northeast 468 539 29,000  Level Los Angeles Center
03:24PM 34.7447 -116.8772 48° Northeast 473 544 29,000  Level Los Angeles Center
03:25PM 34.8311 -116.7589 48° Northeast 473 544 29,000 -180 Level Los Angeles Center
03:26PM 34.9172 -116.6406 48° Northeast 467 537 28,700 -1,020 Descending Los Angeles Center
03:27PM 35.0053 -116.5219 45° Northeast 462 532 27,000 -2,100 Descending Los Angeles Center
03:28PM 35.0911 -116.4158 45° Northeast 448 516 24,500 -1,500 Descending Los Angeles Center
03:29PM 35.1747 -116.3144 47° Northeast 430 495 24,000 -300 Descending Los Angeles Center
03:30PM 35.2542 -116.2103 46° Northeast 419 482 24,000 -780 Level Los Angeles Center
03:31PM 35.3356 -116.1086 46° Northeast 419 482 22,500 -1,920 Descending Los Angeles Center
03:32PM 35.4150 -116.0067 45° Northeast 414 476 20,200 -2,400 Descending Los Angeles Center
03:33PM 35.4919 -115.9122 46° Northeast 395 455 17,800 -2,460 Descending Los Angeles Center
03:34PM 35.5628 -115.8225 46° Northeast 390 449 15,500 -2,340 Descending Los Angeles Center
03:35PM 35.6333 -115.7328 51° Northeast 379 436 13,100 -1,380 Descending Los Angeles Center
03:36PM 35.6917 -115.6456 64° Northeast 358 412 12,700 -1,080 Descending Los Angeles Center
03:37PM 35.7369 -115.5303 64° Northeast 307 353 10,900 -1,500 Descending Los Angeles Center
03:38PM 35.7658 -115.4558 53° Northeast 307 353 9,700 -1,500 Descending Los Angeles Center
03:39PM 35.8153 -115.3758 52° Northeast 301 346 8,100 -1,200 Descending Los Angeles Center
03:40PM 35.8608 -115.3039 33° Northeast 280 322 7,400 -900 Descending Los Angeles Center
03:41PM 35.9128 -115.2622 24° Northeast 242 278 6,300 -1,380 Descending Los Angeles Center
03:42PM 35.9606 -115.2361 29° Northeast 204 235 4,700 -1,080 Descending Los Angeles Center
03:43PM 36.0103 -115.2022 19° North 190 219 4,200 12,120 Descending Los Angeles Center
03:44PM 36.0353 -115.1917 26° Northeast 175 201 29,000 -840 Climbing Los Angeles Center
03:45PM 36.0747 -115.1681 22° Northeast 155 178 2,600 -13,500 Descending Los Angeles Center
03:46PM 36.1058 -115.1522 72° East 146 168 2,100 -300 Descending Los Angeles Center
03:47PM 36.1139 -115.1214 30° Northeast 138 159 2,100 13,440 Level Los Angeles Center
03:48PM 36.1431 -115.1003 31° Northeast 138 159 29,000 13,440 Climbing Los Angeles Center
03:49PM 36.1678 -115.0819 32° Northeast 138 159 29,000  Level Los Angeles Center
03:50PM 36.1947 -115.0611 32° Northeast 138 159 29,000  Level Los Angeles Center